Bonifay, Florida
Current Conditions -  °F | °C
As of 2:55 PM on Sunday 21 Dec 2014 (Local Time) from K54J Reporting Station
Haze Haze  
Wind Chill: 54°   Ceiling: 400
Heat Index: 54°   Visibility: 3mi
Dew Point: 53°   Wind: 5mph
Humidity: 98%   Direction: 50°NE
Pressure: 30.03"   Gusts: NA
Location:  30.79°N, 85.68°W
Report Text: K54J 212055Z AUTO 05004KT 3SM BR OVC004 12/12 A3003 RMK AO2 T01220119
Loading
Personal Weather Stations






























Interactive Weather Map New forecast layout! Learn more

10-Day Weather Forecast

Advertisements
Track Severe Weather on mobile